PWSweather.com
Personal Weather Stations
Station Observations
MANRESA
Manresa Catalonia, ManresaES 08243

Manresa CataloniaManresaES 08243

Lat: 41.731, Lon: 1.834

Elevation: 824

Station Type: Oregon Scientífic WMR-200

Latest ConditionsUpdated 10:22:02 PM GMT+01:01 Thursday, Oct 18, 2018
Currently Today's Max Today's Min Today's Average
Temperature 66.2°F19.0°C 68.2°F20.1°C 57.0°F13.9°C 63.2°F17.3°C
Dew Point 50.0°F10.0°C 59.4°F15.2°C 49.3°F9.6°C 54.0°F12.2°C
Winds 3.4 mph NE5.5 kmh NE 11.9 mph -19.2 kmh - - 3.8 mph 6.1 kmh
Wind Gusts 3.6 mph5.8 kmh 15.4 mph24.8 kmh - -
Humidity 56% 91% 54% 73%
Pressure 29.90 in1012.5 mb 29.93 in1013.5 mb 29.81 in1009.5 mb -
Precipitation - 0.02 in0.5 mm - -
Hour Temp Dew Point Humidity Winds Wind Gusts Pressure Precip Precip Rate Daily Precip Total
10:22 PM 66.2°F19.0°C 50.0°F10.0°C 56% 3.4 mph NE5.5 kmh NE 3.6 mph5.8 kmh 29.90 in1012.5 mb - 0.00 in0.0 mm 0.02 in0.5 mm
10:17 PM 66.4°F19.1°C 50.2°F10.1°C 56% 6.9 mph NNE11.1 kmh NNE 7.4 mph11.9 kmh 29.90 in1012.5 mb - 0.00 in0.0 mm 0.02 in0.5 mm
10:12 PM 66.2°F19.0°C 50.0°F10.0°C 56% 5.8 mph 9.3 kmh 6.5 mph10.5 kmh 29.93 in1013.5 mb - 0.00 in0.0 mm 0.02 in0.5 mm
10:07 PM 66.2°F19.0°C 50.0°F10.0°C 56% 3.6 mph NE5.8 kmh NE 3.4 mph5.5 kmh 29.93 in1013.5 mb - 0.00 in0.0 mm 0.02 in0.5 mm
10:02 PM 66.2°F19.0°C 50.0°F10.0°C 56% 4.7 mph NNE7.6 kmh NNE 3.8 mph6.1 kmh 29.93 in1013.5 mb - 0.00 in0.0 mm 0.02 in0.5 mm
09:57 PM 66.4°F19.1°C 50.2°F10.1°C 56% 5.4 mph 8.7 kmh 7.4 mph11.9 kmh 29.90 in1012.5 mb - 0.00 in0.0 mm 0.02 in0.5 mm
09:52 PM 66.4°F19.1°C 50.2°F10.1°C 56% 4.3 mph NE6.9 kmh NE 5.8 mph9.3 kmh 29.90 in1012.5 mb - 0.00 in0.0 mm 0.02 in0.5 mm
09:47 PM 66.4°F19.1°C 50.2°F10.1°C 56% 7.2 mph NE11.6 kmh NE 6.5 mph10.5 kmh 29.90 in1012.5 mb - 0.00 in0.0 mm 0.02 in0.5 mm
09:42 PM 66.2°F19.0°C 50.0°F10.0°C 56% 5.8 mph 9.3 kmh 3.8 mph6.1 kmh 29.90 in1012.5 mb - 0.00 in0.0 mm 0.02 in0.5 mm
09:37 PM 66.0°F18.9°C 50.4°F10.2°C 57% 4.9 mph 7.9 kmh 5.4 mph8.7 kmh 29.90 in1012.5 mb - 0.00 in0.0 mm 0.02 in0.5 mm
09:32 PM 66.0°F18.9°C 50.4°F10.2°C 57% 3.8 mph NE6.1 kmh NE 5.8 mph9.3 kmh 29.90 in1012.5 mb - 0.00 in0.0 mm 0.02 in0.5 mm
09:27 PM 66.2°F19.0°C 50.0°F10.0°C 56% 3.4 mph NE5.5 kmh NE 3.8 mph6.1 kmh 29.90 in1012.5 mb - 0.00 in0.0 mm 0.02 in0.5 mm
09:22 PM 66.2°F19.0°C 50.0°F10.0°C 56% 5.4 mph NE8.7 kmh NE 3.6 mph5.8 kmh 29.90 in1012.5 mb - 0.00 in0.0 mm 0.02 in0.5 mm
09:17 PM 66.0°F18.9°C 49.8°F9.9°C 56% 6.3 mph NE10.1 kmh NE 4.3 mph6.9 kmh 29.90 in1012.5 mb - 0.00 in0.0 mm 0.02 in0.5 mm
09:12 PM 66.0°F18.9°C 49.8°F9.9°C 56% 7.8 mph NE12.6 kmh NE 7.4 mph11.9 kmh 29.87 in1011.5 mb - 0.00 in0.0 mm 0.02 in0.5 mm
09:07 PM 66.0°F18.9°C 49.8°F9.9°C 56% 6.3 mph NE10.1 kmh NE 7.6 mph12.2 kmh 29.87 in1011.5 mb - 0.00 in0.0 mm 0.02 in0.5 mm
09:02 PM 66.2°F19.0°C 50.0°F10.0°C 56% 5.8 mph NE9.3 kmh NE 5.4 mph8.7 kmh 29.87 in1011.5 mb - 0.00 in0.0 mm 0.02 in0.5 mm
08:57 PM 66.2°F19.0°C 49.6°F9.8°C 55% 6.5 mph 10.5 kmh 6.5 mph10.5 kmh 29.90 in1012.5 mb - 0.00 in0.0 mm 0.02 in0.5 mm
08:52 PM 66.4°F19.1°C 49.8°F9.9°C 55% 4.7 mph 7.6 kmh 4.0 mph6.4 kmh 29.90 in1012.5 mb - 0.00 in0.0 mm 0.02 in0.5 mm
08:47 PM 66.4°F19.1°C 49.3°F9.6°C 54% 7.6 mph NE12.2 kmh NE 10.3 mph16.6 kmh 29.90 in1012.5 mb - 0.00 in0.0 mm 0.02 in0.5 mm
08:42 PM 66.4°F19.1°C 49.3°F9.6°C 54% 7.8 mph 12.6 kmh 7.8 mph12.6 kmh 29.87 in1011.5 mb - 0.00 in0.0 mm 0.02 in0.5 mm
08:37 PM 66.6°F19.2°C 49.5°F9.7°C 54% 4.3 mph NE6.9 kmh NE 6.0 mph9.7 kmh 29.87 in1011.5 mb - 0.00 in0.0 mm 0.02 in0.5 mm
08:32 PM 66.6°F19.2°C 49.5°F9.7°C 54% 4.3 mph 6.9 kmh 8.5 mph13.7 kmh 29.87 in1011.5 mb - 0.00 in0.0 mm 0.02 in0.5 mm
08:27 PM 66.6°F19.2°C 49.8°F9.9°C 55% Calm Calm 3.6 mph5.8 kmh 29.87 in1011.5 mb - 0.00 in0.0 mm 0.02 in0.5 mm
08:22 PM 66.6°F19.2°C 49.8°F9.9°C 55% 2.0 mph NE3.2 kmh NE 1.6 mph2.6 kmh 29.87 in1011.5 mb - 0.00 in0.0 mm 0.02 in0.5 mm
08:17 PM 66.6°F19.2°C 49.8°F9.9°C 55% 2.2 mph NE3.5 kmh NE 2.2 mph3.5 kmh 29.87 in1011.5 mb - 0.00 in0.0 mm 0.02 in0.5 mm
08:12 PM 66.7°F19.3°C 49.6°F9.8°C 54% 5.6 mph NE9.0 kmh NE 4.0 mph6.4 kmh 29.90 in1012.5 mb - 0.00 in0.0 mm 0.02 in0.5 mm
08:07 PM 66.7°F19.3°C 49.6°F9.8°C 54% 2.5 mph NE4.0 kmh NE 2.0 mph3.2 kmh 29.90 in1012.5 mb - 0.00 in0.0 mm 0.02 in0.5 mm
08:02 PM 66.7°F19.3°C 49.6°F9.8°C 54% 2.9 mph NE4.7 kmh NE 4.3 mph6.9 kmh 29.90 in1012.5 mb - 0.00 in0.0 mm 0.02 in0.5 mm
07:57 PM 66.7°F19.3°C 50.0°F10.0°C 55% 3.8 mph NE6.1 kmh NE 5.8 mph9.3 kmh 29.90 in1012.5 mb - 0.00 in0.0 mm 0.02 in0.5 mm
07:52 PM 66.7°F19.3°C 50.0°F10.0°C 55% 4.7 mph NE7.6 kmh NE 4.0 mph6.4 kmh 29.90 in1012.5 mb - 0.00 in0.0 mm 0.02 in0.5 mm
07:47 PM 66.7°F19.3°C 50.0°F10.0°C 55% 6.9 mph NE11.1 kmh NE 5.6 mph9.0 kmh 29.90 in1012.5 mb - 0.00 in0.0 mm 0.02 in0.5 mm
07:42 PM 66.7°F19.3°C 50.0°F10.0°C 55% 2.2 mph 3.5 kmh 2.7 mph4.3 kmh 29.90 in1012.5 mb - 0.00 in0.0 mm 0.02 in0.5 mm
07:37 PM 66.7°F19.3°C 50.5°F10.3°C 56% 3.1 mph 5.0 kmh 2.9 mph4.7 kmh 29.90 in1012.5 mb - 0.00 in0.0 mm 0.02 in0.5 mm
07:32 PM 66.7°F19.3°C 50.5°F10.3°C 56% 4.3 mph NE6.9 kmh NE 3.1 mph5.0 kmh 29.90 in1012.5 mb - 0.00 in0.0 mm 0.02 in0.5 mm
07:27 PM 66.9°F19.4°C 50.7°F10.4°C 56% 4.3 mph NE6.9 kmh NE 3.4 mph5.5 kmh 29.90 in1012.5 mb - 0.00 in0.0 mm 0.02 in0.5 mm
07:22 PM 66.9°F19.4°C 50.7°F10.4°C 56% 6.3 mph NE10.1 kmh NE 4.3 mph6.9 kmh 29.90 in1012.5 mb - 0.00 in0.0 mm 0.02 in0.5 mm
07:17 PM 66.9°F19.4°C 50.7°F10.4°C 56% 6.7 mph 10.8 kmh 6.3 mph10.1 kmh 29.90 in1012.5 mb - 0.00 in0.0 mm 0.02 in0.5 mm
07:12 PM 66.9°F19.4°C 50.7°F10.4°C 56% 8.9 mph NE14.3 kmh NE 8.7 mph14.0 kmh 29.90 in1012.5 mb - 0.00 in0.0 mm 0.02 in0.5 mm
07:07 PM 66.9°F19.4°C 51.3°F10.7°C 57% 6.3 mph 10.1 kmh 5.6 mph9.0 kmh 29.90 in1012.5 mb - 0.00 in0.0 mm 0.02 in0.5 mm
07:02 PM 66.9°F19.4°C 51.3°F10.7°C 57% 3.8 mph NNE6.1 kmh NNE 3.4 mph5.5 kmh 29.90 in1012.5 mb - 0.00 in0.0 mm 0.02 in0.5 mm
06:57 PM 66.9°F19.4°C 51.3°F10.7°C 57% 5.8 mph 9.3 kmh 5.8 mph9.3 kmh 29.90 in1012.5 mb - 0.00 in0.0 mm 0.02 in0.5 mm
06:52 PM 66.9°F19.4°C 51.3°F10.7°C 57% 5.4 mph NE8.7 kmh NE 6.5 mph10.5 kmh 29.90 in1012.5 mb - 0.00 in0.0 mm 0.02 in0.5 mm
06:47 PM 66.9°F19.4°C 51.3°F10.7°C 57% 4.7 mph NE7.6 kmh NE 6.3 mph10.1 kmh 29.90 in1012.5 mb - 0.00 in0.0 mm 0.02 in0.5 mm
06:42 PM 66.9°F19.4°C 51.6°F10.9°C 58% 4.5 mph NE7.2 kmh NE 6.5 mph10.5 kmh 29.87 in1011.5 mb - 0.00 in0.0 mm 0.02 in0.5 mm
06:37 PM 66.9°F19.4°C 51.3°F10.7°C 57% 6.0 mph 9.7 kmh 5.8 mph9.3 kmh 29.87 in1011.5 mb - 0.00 in0.0 mm 0.02 in0.5 mm
06:32 PM 67.1°F19.5°C 51.8°F11.0°C 58% 6.0 mph NE9.7 kmh NE 8.7 mph14.0 kmh 29.87 in1011.5 mb - 0.00 in0.0 mm 0.02 in0.5 mm
06:27 PM 67.1°F19.5°C 51.8°F11.0°C 58% 5.6 mph 9.0 kmh 6.5 mph10.5 kmh 29.87 in1011.5 mb - 0.00 in0.0 mm 0.02 in0.5 mm
06:22 PM 67.1°F19.5°C 51.8°F11.0°C 58% 6.7 mph 10.8 kmh 8.5 mph13.7 kmh 29.87 in1011.5 mb - 0.00 in0.0 mm 0.02 in0.5 mm
06:17 PM 67.1°F19.5°C 51.8°F11.0°C 58% 5.8 mph 9.3 kmh 6.9 mph11.1 kmh 29.87 in1011.5 mb - 0.00 in0.0 mm 0.02 in0.5 mm
06:12 PM 67.1°F19.5°C 51.8°F11.0°C 58% 6.7 mph 10.8 kmh 6.5 mph10.5 kmh 29.87 in1011.5 mb - 0.00 in0.0 mm 0.02 in0.5 mm
06:07 PM 67.1°F19.5°C 51.8°F11.0°C 58% 7.2 mph 11.6 kmh 4.0 mph6.4 kmh 29.87 in1011.5 mb - 0.00 in0.0 mm 0.02 in0.5 mm
06:02 PM 67.1°F19.5°C 51.8°F11.0°C 58% 5.6 mph 9.0 kmh 5.4 mph8.7 kmh 29.87 in1011.5 mb - 0.00 in0.0 mm 0.02 in0.5 mm
05:57 PM 67.3°F19.6°C 52.0°F11.1°C 58% 3.8 mph NE6.1 kmh NE 3.4 mph5.5 kmh 29.87 in1011.5 mb - 0.00 in0.0 mm 0.02 in0.5 mm
05:52 PM 67.3°F19.6°C 52.0°F11.1°C 58% 4.0 mph NE6.4 kmh NE 4.9 mph7.9 kmh 29.87 in1011.5 mb - 0.00 in0.0 mm 0.02 in0.5 mm
05:47 PM 67.5°F19.7°C 52.2°F11.2°C 58% 3.4 mph 5.5 kmh 5.6 mph9.0 kmh 29.87 in1011.5 mb - 0.00 in0.0 mm 0.02 in0.5 mm
05:42 PM 67.5°F19.7°C 52.2°F11.2°C 58% 4.7 mph 7.6 kmh 5.8 mph9.3 kmh 29.87 in1011.5 mb - 0.00 in0.0 mm 0.02 in0.5 mm
05:37 PM 67.5°F19.7°C 52.2°F11.2°C 58% 4.7 mph 7.6 kmh 7.8 mph12.6 kmh 29.87 in1011.5 mb - 0.00 in0.0 mm 0.02 in0.5 mm
05:32 PM 67.6°F19.8°C 52.9°F11.6°C 59% 2.5 mph NE4.0 kmh NE 2.5 mph4.0 kmh 29.87 in1011.5 mb - 0.00 in0.0 mm 0.02 in0.5 mm
05:27 PM 67.6°F19.8°C 52.9°F11.6°C 59% 3.6 mph 5.8 kmh 3.4 mph5.5 kmh 29.84 in1010.5 mb - 0.00 in0.0 mm 0.02 in0.5 mm
05:22 PM 67.6°F19.8°C 52.9°F11.6°C 59% 4.0 mph 6.4 kmh 4.3 mph6.9 kmh 29.84 in1010.5 mb - 0.00 in0.0 mm 0.02 in0.5 mm
05:17 PM 67.6°F19.8°C 53.2°F11.8°C 60% 3.4 mph NE5.5 kmh NE 4.9 mph7.9 kmh 29.84 in1010.5 mb - 0.00 in0.0 mm 0.02 in0.5 mm
05:12 PM 67.6°F19.8°C 52.9°F11.6°C 59% 5.8 mph 9.3 kmh 6.3 mph10.1 kmh 29.84 in1010.5 mb - 0.00 in0.0 mm 0.02 in0.5 mm
05:07 PM 67.6°F19.8°C 53.2°F11.8°C 60% 4.3 mph 6.9 kmh 3.4 mph5.5 kmh 29.84 in1010.5 mb - 0.00 in0.0 mm 0.02 in0.5 mm
05:02 PM 67.6°F19.8°C 53.2°F11.8°C 60% 4.7 mph 7.6 kmh 6.3 mph10.1 kmh 29.84 in1010.5 mb - 0.00 in0.0 mm 0.02 in0.5 mm
04:57 PM 67.6°F19.8°C 52.9°F11.6°C 59% 6.0 mph 9.7 kmh 6.0 mph9.7 kmh 29.84 in1010.5 mb - 0.00 in0.0 mm 0.02 in0.5 mm
04:52 PM 67.6°F19.8°C 52.9°F11.6°C 59% 6.0 mph NE9.7 kmh NE 6.3 mph10.1 kmh 29.84 in1010.5 mb - 0.00 in0.0 mm 0.02 in0.5 mm
04:47 PM 67.6°F19.8°C 52.9°F11.6°C 59% 6.7 mph NE10.8 kmh NE 6.0 mph9.7 kmh 29.84 in1010.5 mb - 0.00 in0.0 mm 0.02 in0.5 mm
04:42 PM 67.8°F19.9°C 53.1°F11.7°C 59% 4.3 mph NNE6.9 kmh NNE 4.0 mph6.4 kmh 29.84 in1010.5 mb - 0.00 in0.0 mm 0.02 in0.5 mm
04:37 PM 67.8°F19.9°C 53.1°F11.7°C 59% 6.0 mph 9.7 kmh 5.4 mph8.7 kmh 29.84 in1010.5 mb - 0.00 in0.0 mm 0.02 in0.5 mm
04:32 PM 67.8°F19.9°C 52.5°F11.4°C 58% 6.3 mph 10.1 kmh 7.8 mph12.6 kmh 29.84 in1010.5 mb - 0.00 in0.0 mm 0.02 in0.5 mm
04:27 PM 68.0°F20.0°C 52.7°F11.5°C 58% 4.7 mph 7.6 kmh 4.3 mph6.9 kmh 29.84 in1010.5 mb - 0.00 in0.0 mm 0.02 in0.5 mm
04:22 PM 68.0°F20.0°C 52.7°F11.5°C 58% 7.8 mph 12.6 kmh 7.8 mph12.6 kmh 29.84 in1010.5 mb - 0.00 in0.0 mm 0.02 in0.5 mm
04:17 PM 68.0°F20.0°C 52.7°F11.5°C 58% 4.7 mph NE7.6 kmh NE 7.6 mph12.2 kmh 29.84 in1010.5 mb - 0.00 in0.0 mm 0.02 in0.5 mm
04:12 PM 68.2°F20.1°C 52.9°F11.6°C 58% 4.9 mph NNE7.9 kmh NNE 3.1 mph5.0 kmh 29.84 in1010.5 mb - 0.00 in0.0 mm 0.02 in0.5 mm
04:07 PM 68.2°F20.1°C 52.9°F11.6°C 58% 5.4 mph NE8.7 kmh NE 7.8 mph12.6 kmh 29.84 in1010.5 mb - 0.00 in0.0 mm 0.02 in0.5 mm
04:02 PM 68.2°F20.1°C 52.9°F11.6°C 58% 6.5 mph NNE10.5 kmh NNE 8.7 mph14.0 kmh 29.84 in1010.5 mb - 0.00 in0.0 mm 0.02 in0.5 mm
03:57 PM 68.2°F20.1°C 53.2°F11.8°C 59% 5.6 mph 9.0 kmh 2.7 mph4.3 kmh 29.84 in1010.5 mb - 0.00 in0.0 mm 0.02 in0.5 mm
03:52 PM 68.2°F20.1°C 53.2°F11.8°C 59% 6.0 mph NE9.7 kmh NE 5.6 mph9.0 kmh 29.84 in1010.5 mb - 0.00 in0.0 mm 0.02 in0.5 mm
03:47 PM 68.0°F20.0°C 53.6°F12.0°C 60% 7.4 mph 11.9 kmh 9.6 mph15.4 kmh 29.84 in1010.5 mb - 0.00 in0.0 mm 0.02 in0.5 mm
03:42 PM 68.0°F20.0°C 54.1°F12.3°C 61% 6.5 mph 10.5 kmh 6.0 mph9.7 kmh 29.84 in1010.5 mb - 0.00 in0.0 mm 0.02 in0.5 mm
03:37 PM 68.0°F20.0°C 54.1°F12.3°C 61% 6.5 mph E10.5 kmh E 4.7 mph7.6 kmh 29.84 in1010.5 mb - 0.00 in0.0 mm 0.02 in0.5 mm
03:32 PM 67.8°F19.9°C 54.0°F12.2°C 61% 11.2 mph NE18.0 kmh NE 10.7 mph17.2 kmh 29.84 in1010.5 mb - 0.00 in0.0 mm 0.02 in0.5 mm
03:27 PM 67.8°F19.9°C 54.3°F12.4°C 62% 7.4 mph NE11.9 kmh NE 7.8 mph12.6 kmh 29.81 in1009.5 mb - 0.00 in0.0 mm 0.02 in0.5 mm
03:22 PM 67.8°F19.9°C 54.9°F12.7°C 63% 9.6 mph NE15.4 kmh NE 10.1 mph16.3 kmh 29.81 in1009.5 mb - 0.00 in0.0 mm 0.02 in0.5 mm
03:17 PM 67.8°F19.9°C 55.2°F12.9°C 64% 10.3 mph 16.6 kmh 15.4 mph24.8 kmh 29.81 in1009.5 mb - 0.00 in0.0 mm 0.02 in0.5 mm
03:12 PM 67.8°F19.9°C 55.2°F12.9°C 64% 8.9 mph NE14.3 kmh NE 7.4 mph11.9 kmh 29.84 in1010.5 mb - 0.00 in0.0 mm 0.02 in0.5 mm
03:07 PM 67.6°F19.8°C 55.4°F13.0°C 65% 6.7 mph NNE10.8 kmh NNE 8.9 mph14.3 kmh 29.84 in1010.5 mb - 0.00 in0.0 mm 0.02 in0.5 mm
03:02 PM 67.6°F19.8°C 55.4°F13.0°C 65% 10.1 mph NE16.3 kmh NE 8.7 mph14.0 kmh 29.84 in1010.5 mb - 0.00 in0.0 mm 0.02 in0.5 mm
02:57 PM 67.5°F19.7°C 55.8°F13.2°C 66% 8.7 mph NNE14.0 kmh NNE 12.8 mph20.6 kmh 29.84 in1010.5 mb - 0.00 in0.0 mm 0.02 in0.5 mm
02:52 PM 67.5°F19.7°C 56.1°F13.4°C 67% 9.8 mph 15.8 kmh 5.8 mph9.3 kmh 29.84 in1010.5 mb - 0.07 in1.8 mm 0.02 in0.5 mm
02:47 PM 67.1°F19.5°C 56.1°F13.4°C 68% 11.9 mph NE19.2 kmh NE 7.6 mph12.2 kmh 29.84 in1010.5 mb - 0.07 in1.8 mm 0.02 in0.5 mm
02:42 PM 66.9°F19.4°C 56.5°F13.6°C 69% 8.1 mph NNE13.0 kmh NNE 8.9 mph14.3 kmh 29.84 in1010.5 mb - 0.07 in1.8 mm 0.02 in0.5 mm
02:37 PM 66.7°F19.3°C 57.0°F13.9°C 71% 8.7 mph 14.0 kmh 5.8 mph9.3 kmh 29.84 in1010.5 mb - 0.07 in1.8 mm 0.02 in0.5 mm
02:32 PM 66.4°F19.1°C 57.9°F14.4°C 74% 6.0 mph NNE9.7 kmh NNE 6.3 mph10.1 kmh 29.84 in1010.5 mb - 0.07 in1.8 mm 0.02 in0.5 mm
02:27 PM 66.0°F18.9°C 58.6°F14.8°C 77% 2.9 mph 4.7 kmh 4.9 mph7.9 kmh 29.84 in1010.5 mb - 0.07 in1.8 mm 0.02 in0.5 mm
02:22 PM 65.8°F18.8°C 58.5°F14.7°C 77% 6.0 mph 9.7 kmh 8.7 mph14.0 kmh 29.84 in1010.5 mb - 0.07 in1.8 mm 0.02 in0.5 mm
02:17 PM 65.8°F18.8°C 59.2°F15.1°C 79% 4.7 mph 7.6 kmh 5.6 mph9.0 kmh 29.84 in1010.5 mb - 0.07 in1.8 mm 0.02 in0.5 mm
02:12 PM 65.7°F18.7°C 59.0°F15.0°C 79% 4.5 mph 7.2 kmh 4.0 mph6.4 kmh 29.87 in1011.5 mb - 0.07 in1.8 mm 0.02 in0.5 mm
02:07 PM 65.7°F18.7°C 59.4°F15.2°C 80% 5.8 mph NW9.3 kmh NW 7.6 mph12.2 kmh 29.87 in1011.5 mb - 0.07 in1.8 mm 0.02 in0.5 mm
02:02 PM 65.5°F18.6°C 58.8°F14.9°C 79% 7.8 mph 12.6 kmh 6.3 mph10.1 kmh 29.87 in1011.5 mb - 0.07 in1.8 mm 0.02 in0.5 mm
01:57 PM 65.3°F18.5°C 59.0°F15.0°C 80% 7.4 mph 11.9 kmh 8.7 mph14.0 kmh 29.87 in1011.5 mb - 0.07 in1.8 mm 0.02 in0.5 mm
01:52 PM 65.3°F18.5°C 59.0°F15.0°C 80% 5.6 mph 9.0 kmh 6.0 mph9.7 kmh 29.87 in1011.5 mb - 0.07 in1.8 mm 0.02 in0.5 mm
01:47 PM 65.1°F18.4°C 59.2°F15.1°C 81% 6.5 mph 10.5 kmh 5.8 mph9.3 kmh 29.87 in1011.5 mb - 0.07 in1.8 mm 0.02 in0.5 mm
01:42 PM 65.1°F18.4°C 58.8°F14.9°C 80% 4.5 mph 7.2 kmh 4.9 mph7.9 kmh 29.87 in1011.5 mb - 0.07 in1.8 mm 0.02 in0.5 mm
01:37 PM 65.1°F18.4°C 58.5°F14.7°C 79% 6.5 mph 10.5 kmh 8.5 mph13.7 kmh 29.87 in1011.5 mb - 0.07 in1.8 mm 0.02 in0.5 mm
01:32 PM 65.1°F18.4°C 57.4°F14.1°C 76% 6.5 mph 10.5 kmh 7.4 mph11.9 kmh 29.87 in1011.5 mb - 0.07 in1.8 mm 0.02 in0.5 mm
01:27 PM 65.3°F18.5°C 57.6°F14.2°C 76% 7.2 mph NNE11.6 kmh NNE 8.5 mph13.7 kmh 29.90 in1012.5 mb - 0.07 in1.8 mm 0.02 in0.5 mm
01:22 PM 65.1°F18.4°C 57.4°F14.1°C 76% 8.9 mph 14.3 kmh 5.8 mph9.3 kmh 29.90 in1012.5 mb - 0.07 in1.8 mm 0.02 in0.5 mm
01:17 PM 65.5°F18.6°C 57.0°F13.9°C 74% 8.1 mph NNE13.0 kmh NNE 6.3 mph10.1 kmh 29.90 in1012.5 mb - 0.07 in1.8 mm 0.02 in0.5 mm
01:12 PM 65.7°F18.7°C 56.5°F13.6°C 72% 5.4 mph NNE8.7 kmh NNE 7.6 mph12.2 kmh 29.90 in1012.5 mb - 0.07 in1.8 mm 0.01 in0.3 mm
01:07 PM 66.0°F18.9°C 55.9°F13.3°C 70% 7.2 mph NE11.6 kmh NE 5.6 mph9.0 kmh 29.90 in1012.5 mb - 0.00 in0.0 mm 0.00 in0.0 mm
01:02 PM 66.2°F19.0°C 56.1°F13.4°C 70% 7.2 mph NNE11.6 kmh NNE 4.7 mph7.6 kmh 29.90 in1012.5 mb - 0.00 in0.0 mm 0.00 in0.0 mm
12:57 PM 66.2°F19.0°C 56.1°F13.4°C 70% 6.5 mph NE10.5 kmh NE 5.4 mph8.7 kmh 29.90 in1012.5 mb - 0.00 in0.0 mm 0.00 in0.0 mm
12:52 PM 66.0°F18.9°C 56.3°F13.5°C 71% 2.9 mph E4.7 kmh E 4.0 mph6.4 kmh 29.90 in1012.5 mb - 0.00 in0.0 mm 0.00 in0.0 mm
12:47 PM 66.0°F18.9°C 55.9°F13.3°C 70% 4.9 mph NE7.9 kmh NE 5.4 mph8.7 kmh 29.90 in1012.5 mb - 0.00 in0.0 mm 0.00 in0.0 mm
12:42 PM 66.0°F18.9°C 55.6°F13.1°C 69% 3.1 mph NE5.0 kmh NE 2.9 mph4.7 kmh 29.90 in1012.5 mb - 0.00 in0.0 mm 0.00 in0.0 mm
12:37 PM 66.0°F18.9°C 55.6°F13.1°C 69% 6.9 mph NE11.1 kmh NE 6.3 mph10.1 kmh 29.90 in1012.5 mb - 0.00 in0.0 mm 0.00 in0.0 mm
12:32 PM 66.0°F18.9°C 55.2°F12.9°C 68% 5.6 mph NE9.0 kmh NE 3.8 mph6.1 kmh 29.90 in1012.5 mb - 0.00 in0.0 mm 0.00 in0.0 mm
12:27 PM 66.0°F18.9°C 55.2°F12.9°C 68% 4.5 mph NE7.2 kmh NE 4.0 mph6.4 kmh 29.93 in1013.5 mb - 0.00 in0.0 mm 0.00 in0.0 mm
12:22 PM 65.8°F18.8°C 55.0°F12.8°C 68% 9.4 mph NE15.1 kmh NE 8.5 mph13.7 kmh 29.93 in1013.5 mb - 0.00 in0.0 mm 0.00 in0.0 mm
12:17 PM 65.8°F18.8°C 55.4°F13.0°C 69% 9.2 mph 14.8 kmh 8.7 mph14.0 kmh 29.93 in1013.5 mb - 0.00 in0.0 mm 0.00 in0.0 mm
12:12 PM 65.8°F18.8°C 55.4°F13.0°C 69% 4.3 mph NNE6.9 kmh NNE 7.8 mph12.6 kmh 29.90 in1012.5 mb - 0.00 in0.0 mm 0.00 in0.0 mm
12:07 PM 65.8°F18.8°C 55.4°F13.0°C 69% 6.0 mph NE9.7 kmh NE 7.4 mph11.9 kmh 29.90 in1012.5 mb - 0.00 in0.0 mm 0.00 in0.0 mm
12:02 PM 65.7°F18.7°C 55.2°F12.9°C 69% 6.3 mph 10.1 kmh 9.6 mph15.4 kmh 29.90 in1012.5 mb - 0.00 in0.0 mm 0.00 in0.0 mm
11:57 AM 65.5°F18.6°C 54.7°F12.6°C 68% 9.6 mph 15.4 kmh 13.2 mph21.2 kmh 29.90 in1012.5 mb - 0.00 in0.0 mm 0.00 in0.0 mm
11:52 AM 65.7°F18.7°C 54.9°F12.7°C 68% 7.8 mph 12.6 kmh 7.4 mph11.9 kmh 29.90 in1012.5 mb - 0.00 in0.0 mm 0.00 in0.0 mm
11:47 AM 65.8°F18.8°C 54.5°F12.5°C 67% 8.7 mph NNE14.0 kmh NNE 10.5 mph16.9 kmh 29.90 in1012.5 mb - 0.00 in0.0 mm 0.00 in0.0 mm
11:42 AM 66.0°F18.9°C 54.3°F12.4°C 66% 7.6 mph NE12.2 kmh NE 12.1 mph19.5 kmh 29.90 in1012.5 mb - 0.00 in0.0 mm 0.00 in0.0 mm
11:37 AM 66.2°F19.0°C 54.1°F12.3°C 65% 10.7 mph 17.2 kmh 8.5 mph13.7 kmh 29.90 in1012.5 mb - 0.00 in0.0 mm 0.00 in0.0 mm
11:32 AM 66.2°F19.0°C 53.6°F12.0°C 64% 11.4 mph 18.3 kmh 13.2 mph21.2 kmh 29.90 in1012.5 mb - 0.00 in0.0 mm 0.00 in0.0 mm
11:27 AM 66.2°F19.0°C 53.6°F12.0°C 64% 9.8 mph NNE15.8 kmh NNE 7.6 mph12.2 kmh 29.90 in1012.5 mb - 0.00 in0.0 mm 0.00 in0.0 mm
11:22 AM 66.2°F19.0°C 54.5°F12.5°C 66% 6.7 mph NE10.8 kmh NE 8.5 mph13.7 kmh 29.90 in1012.5 mb - 0.00 in0.0 mm 0.00 in0.0 mm
11:17 AM 66.2°F19.0°C 55.4°F13.0°C 68% 6.5 mph NE10.5 kmh NE 7.8 mph12.6 kmh 29.90 in1012.5 mb - 0.00 in0.0 mm 0.00 in0.0 mm
11:12 AM 65.8°F18.8°C 55.0°F12.8°C 68% 7.4 mph 11.9 kmh 8.1 mph13.0 kmh 29.90 in1012.5 mb - 0.00 in0.0 mm 0.00 in0.0 mm
11:07 AM 65.1°F18.4°C 56.3°F13.5°C 73% 4.3 mph NE6.9 kmh NE 4.0 mph6.4 kmh 29.90 in1012.5 mb - 0.00 in0.0 mm 0.00 in0.0 mm
11:02 AM 64.4°F18.0°C 55.2°F12.9°C 72% 2.2 mph NE3.5 kmh NE 2.9 mph4.7 kmh 29.90 in1012.5 mb - 0.00 in0.0 mm 0.00 in0.0 mm
10:57 AM 63.9°F17.7°C 55.8°F13.2°C 75% 0.9 mph NE1.4 kmh NE 0.9 mph1.4 kmh 29.90 in1012.5 mb - 0.00 in0.0 mm 0.00 in0.0 mm
10:52 AM 63.3°F17.4°C 55.6°F13.1°C 76% 2.2 mph NW3.5 kmh NW 2.5 mph4.0 kmh 29.90 in1012.5 mb - 0.00 in0.0 mm 0.00 in0.0 mm
10:47 AM 63.0°F17.2°C 56.3°F13.5°C 79% 1.1 mph NE1.8 kmh NE 0.9 mph1.4 kmh 29.90 in1012.5 mb - 0.00 in0.0 mm 0.00 in0.0 mm
10:42 AM 62.6°F17.0°C 55.9°F13.3°C 79% 1.1 mph SE1.8 kmh SE 0.9 mph1.4 kmh 29.90 in1012.5 mb - 0.00 in0.0 mm 0.00 in0.0 mm
10:37 AM 62.6°F17.0°C 55.9°F13.3°C 79% 2.2 mph E3.5 kmh E 2.5 mph4.0 kmh 29.90 in1012.5 mb - 0.00 in0.0 mm 0.00 in0.0 mm
10:32 AM 62.1°F16.7°C 55.4°F13.0°C 79% 0.9 mph NE1.4 kmh NE -- 29.90 in1012.5 mb - 0.00 in0.0 mm 0.00 in0.0 mm
10:27 AM 61.9°F16.6°C 55.2°F12.9°C 79% 1.1 mph E1.8 kmh E -- 29.90 in1012.5 mb - 0.00 in0.0 mm 0.00 in0.0 mm
10:22 AM 61.7°F16.5°C 54.9°F12.7°C 78% 2.9 mph E4.7 kmh E 2.5 mph4.0 kmh 29.90 in1012.5 mb - 0.00 in0.0 mm 0.00 in0.0 mm
10:17 AM 61.7°F16.5°C 55.0°F12.8°C 79% 2.9 mph E4.7 kmh E 3.1 mph5.0 kmh 29.90 in1012.5 mb - 0.00 in0.0 mm 0.00 in0.0 mm
10:12 AM 61.9°F16.6°C 55.6°F13.1°C 80% 2.7 mph E4.3 kmh E 3.6 mph5.8 kmh 29.90 in1012.5 mb - 0.00 in0.0 mm 0.00 in0.0 mm
10:07 AM 61.5°F16.4°C 55.0°F12.8°C 79% Calm Calm -- 29.90 in1012.5 mb - 0.00 in0.0 mm 0.00 in0.0 mm
10:02 AM 61.5°F16.4°C 55.6°F13.1°C 81% 3.4 mph E5.5 kmh E 4.0 mph6.4 kmh 29.90 in1012.5 mb - 0.00 in0.0 mm 0.00 in0.0 mm
09:57 AM 61.5°F16.4°C 55.9°F13.3°C 82% 1.6 mph E2.6 kmh E 2.0 mph3.2 kmh 29.90 in1012.5 mb - 0.00 in0.0 mm 0.00 in0.0 mm
09:52 AM 61.3°F16.3°C 55.8°F13.2°C 82% 1.3 mph E2.1 kmh E -- 29.90 in1012.5 mb - 0.00 in0.0 mm 0.00 in0.0 mm
09:47 AM 61.2°F16.2°C 55.6°F13.1°C 82% 0.9 mph E1.4 kmh E 2.5 mph4.0 kmh 29.90 in1012.5 mb - 0.00 in0.0 mm 0.00 in0.0 mm
09:42 AM 61.0°F16.1°C 55.4°F13.0°C 82% 1.6 mph E2.6 kmh E 2.0 mph3.2 kmh 29.90 in1012.5 mb - 0.00 in0.0 mm 0.00 in0.0 mm
09:37 AM 61.0°F16.1°C 55.4°F13.0°C 82% 2.7 mph SE4.3 kmh SE 2.7 mph4.3 kmh 29.90 in1012.5 mb - 0.00 in0.0 mm 0.00 in0.0 mm
09:32 AM 61.0°F16.1°C 55.8°F13.2°C 83% 1.3 mph E2.1 kmh E 1.6 mph2.6 kmh 29.90 in1012.5 mb - 0.00 in0.0 mm 0.00 in0.0 mm
09:27 AM 61.0°F16.1°C 55.8°F13.2°C 83% Calm Calm -- 29.90 in1012.5 mb - 0.00 in0.0 mm 0.00 in0.0 mm
09:22 AM 60.8°F16.0°C 56.3°F13.5°C 85% 1.1 mph SW1.8 kmh SW 1.6 mph2.6 kmh 29.90 in1012.5 mb - 0.00 in0.0 mm 0.00 in0.0 mm
09:17 AM 60.4°F15.8°C 55.9°F13.3°C 85% 1.1 mph SW1.8 kmh SW -- 29.90 in1012.5 mb - 0.00 in0.0 mm 0.00 in0.0 mm
09:12 AM 60.3°F15.7°C 55.8°F13.2°C 85% 2.0 mph E3.2 kmh E 2.0 mph3.2 kmh 29.90 in1012.5 mb - 0.00 in0.0 mm 0.00 in0.0 mm
09:07 AM 59.9°F15.5°C 55.4°F13.0°C 85% 2.7 mph E4.3 kmh E 2.9 mph4.7 kmh 29.90 in1012.5 mb - 0.00 in0.0 mm 0.00 in0.0 mm
09:02 AM 59.7°F15.4°C 55.2°F12.9°C 85% 1.6 mph E2.6 kmh E 1.1 mph1.8 kmh 29.90 in1012.5 mb - 0.00 in0.0 mm 0.00 in0.0 mm
08:57 AM 59.5°F15.3°C 55.0°F12.8°C 85% 2.5 mph E4.0 kmh E 2.9 mph4.7 kmh 29.90 in1012.5 mb - 0.00 in0.0 mm 0.00 in0.0 mm
08:52 AM 59.7°F15.4°C 55.8°F13.2°C 87% 2.5 mph SE4.0 kmh SE 3.6 mph5.8 kmh 29.90 in1012.5 mb - 0.00 in0.0 mm 0.00 in0.0 mm
08:47 AM 59.2°F15.1°C 55.0°F12.8°C 86% 0.9 mph NW1.4 kmh NW 1.6 mph2.6 kmh 29.90 in1012.5 mb - 0.00 in0.0 mm 0.00 in0.0 mm
08:42 AM 58.6°F14.8°C 54.1°F12.3°C 85% Calm Calm -- 29.90 in1012.5 mb - 0.00 in0.0 mm 0.00 in0.0 mm
08:37 AM 58.8°F14.9°C 55.2°F12.9°C 88% 1.6 mph NW2.6 kmh NW 2.5 mph4.0 kmh 29.90 in1012.5 mb - 0.00 in0.0 mm 0.00 in0.0 mm
08:32 AM 58.6°F14.8°C 55.0°F12.8°C 88% Calm Calm -- 29.90 in1012.5 mb - 0.00 in0.0 mm 0.00 in0.0 mm
08:27 AM 58.3°F14.6°C 54.5°F12.5°C 87% Calm Calm -- 29.90 in1012.5 mb - 0.00 in0.0 mm 0.00 in0.0 mm
08:22 AM 58.1°F14.5°C 54.0°F12.2°C 86% 1.3 mph NE2.1 kmh NE 1.1 mph1.8 kmh 29.90 in1012.5 mb - 0.00 in0.0 mm 0.00 in0.0 mm
08:17 AM 57.9°F14.4°C 53.8°F12.1°C 86% 2.9 mph NW4.7 kmh NW 2.9 mph4.7 kmh 29.90 in1012.5 mb - 0.00 in0.0 mm 0.00 in0.0 mm
08:12 AM 57.6°F14.2°C 53.1°F11.7°C 85% 3.4 mph NNW5.5 kmh NNW 3.4 mph5.5 kmh 29.90 in1012.5 mb - 0.00 in0.0 mm 0.00 in0.0 mm
08:07 AM 57.9°F14.4°C 53.4°F11.9°C 85% 3.4 mph NNE5.5 kmh NNE 3.1 mph5.0 kmh 29.90 in1012.5 mb - 0.00 in0.0 mm 0.00 in0.0 mm
08:02 AM 57.9°F14.4°C 53.4°F11.9°C 85% 2.0 mph NNE3.2 kmh NNE 1.3 mph2.1 kmh 29.90 in1012.5 mb - 0.00 in0.0 mm 0.00 in0.0 mm
07:57 AM 58.1°F14.5°C 54.3°F12.4°C 87% 2.0 mph 3.2 kmh 1.6 mph2.6 kmh 29.90 in1012.5 mb - 0.00 in0.0 mm 0.00 in0.0 mm
07:52 AM 58.3°F14.6°C 54.5°F12.5°C 87% 2.2 mph NW3.5 kmh NW 2.0 mph3.2 kmh 29.90 in1012.5 mb - 0.00 in0.0 mm 0.00 in0.0 mm
07:47 AM 58.1°F14.5°C 54.5°F12.5°C 88% 2.7 mph NW4.3 kmh NW 3.6 mph5.8 kmh 29.90 in1012.5 mb - 0.00 in0.0 mm 0.00 in0.0 mm
07:42 AM 58.1°F14.5°C 54.9°F12.7°C 89% 2.9 mph NW4.7 kmh NW 2.5 mph4.0 kmh 29.90 in1012.5 mb - 0.00 in0.0 mm 0.00 in0.0 mm
07:37 AM 58.1°F14.5°C 54.9°F12.7°C 89% 1.1 mph NW1.8 kmh NW -- 29.90 in1012.5 mb - 0.00 in0.0 mm 0.00 in0.0 mm
07:32 AM 57.9°F14.4°C 54.7°F12.6°C 89% 1.3 mph NW2.1 kmh NW 3.1 mph5.0 kmh 29.90 in1012.5 mb - 0.00 in0.0 mm 0.00 in0.0 mm
07:27 AM 58.1°F14.5°C 54.9°F12.7°C 89% 2.0 mph W3.2 kmh W 2.7 mph4.3 kmh 29.90 in1012.5 mb - 0.00 in0.0 mm 0.00 in0.0 mm
07:22 AM 57.7°F14.3°C 54.5°F12.5°C 89% 2.7 mph NW4.3 kmh NW 2.0 mph3.2 kmh 29.90 in1012.5 mb - 0.00 in0.0 mm 0.00 in0.0 mm
07:17 AM 58.1°F14.5°C 55.2°F12.9°C 90% 2.0 mph W3.2 kmh W 2.9 mph4.7 kmh 29.90 in1012.5 mb - 0.00 in0.0 mm 0.00 in0.0 mm
07:12 AM 57.7°F14.3°C 54.5°F12.5°C 89% Calm Calm -- 29.87 in1011.5 mb - 0.00 in0.0 mm 0.00 in0.0 mm
07:07 AM 57.9°F14.4°C 55.0°F12.8°C 90% 0.9 mph SSE1.4 kmh SSE -- 29.87 in1011.5 mb - 0.00 in0.0 mm 0.00 in0.0 mm
07:02 AM 58.1°F14.5°C 55.4°F13.0°C 91% Calm Calm 0.9 mph1.4 kmh 29.87 in1011.5 mb - 0.00 in0.0 mm 0.00 in0.0 mm
06:57 AM 57.7°F14.3°C 54.9°F12.7°C 90% 0.9 mph NW1.4 kmh NW -- 29.87 in1011.5 mb - 0.00 in0.0 mm 0.00 in0.0 mm
06:52 AM 57.2°F14.0°C 53.6°F12.0°C 88% Calm Calm 0.9 mph1.4 kmh 29.87 in1011.5 mb - 0.00 in0.0 mm 0.00 in0.0 mm
06:47 AM 57.2°F14.0°C 53.6°F12.0°C 88% Calm Calm -- 29.87 in1011.5 mb - 0.00 in0.0 mm 0.00 in0.0 mm
06:42 AM 57.2°F14.0°C 53.6°F12.0°C 88% 1.1 mph E1.8 kmh E 1.1 mph1.8 kmh 29.87 in1011.5 mb - 0.00 in0.0 mm 0.00 in0.0 mm
06:37 AM 57.4°F14.1°C 53.8°F12.1°C 88% 2.2 mph E3.5 kmh E 2.7 mph4.3 kmh 29.87 in1011.5 mb - 0.00 in0.0 mm 0.00 in0.0 mm
06:32 AM 57.6°F14.2°C 54.3°F12.4°C 89% Calm Calm -- 29.87 in1011.5 mb - 0.00 in0.0 mm 0.00 in0.0 mm
06:27 AM 57.6°F14.2°C 54.3°F12.4°C 89% 0.9 mph NE1.4 kmh NE 1.1 mph1.8 kmh 29.87 in1011.5 mb - 0.00 in0.0 mm 0.00 in0.0 mm
06:22 AM 57.0°F13.9°C 53.4°F11.9°C 88% Calm Calm -- 29.87 in1011.5 mb - 0.00 in0.0 mm 0.00 in0.0 mm
06:17 AM 57.2°F14.0°C 53.6°F12.0°C 88% 2.2 mph ESE3.5 kmh ESE 2.5 mph4.0 kmh 29.87 in1011.5 mb - 0.00 in0.0 mm 0.00 in0.0 mm
06:12 AM 57.0°F13.9°C 53.4°F11.9°C 88% 1.6 mph SE2.6 kmh SE 2.0 mph3.2 kmh 29.87 in1011.5 mb - 0.00 in0.0 mm 0.00 in0.0 mm
06:07 AM 57.0°F13.9°C 53.4°F11.9°C 88% 1.1 mph SE1.8 kmh SE 1.1 mph1.8 kmh 29.87 in1011.5 mb - 0.00 in0.0 mm 0.00 in0.0 mm
06:02 AM 57.0°F13.9°C 53.4°F11.9°C 88% 2.0 mph E3.2 kmh E 1.3 mph2.1 kmh 29.87 in1011.5 mb - 0.00 in0.0 mm 0.00 in0.0 mm
05:57 AM 57.2°F14.0°C 53.4°F11.9°C 87% 2.2 mph SE3.5 kmh SE 1.1 mph1.8 kmh 29.87 in1011.5 mb - 0.00 in0.0 mm 0.00 in0.0 mm
05:52 AM 57.2°F14.0°C 53.4°F11.9°C 87% 2.7 mph SE4.3 kmh SE 2.5 mph4.0 kmh 29.87 in1011.5 mb - 0.00 in0.0 mm 0.00 in0.0 mm
05:47 AM 57.4°F14.1°C 53.2°F11.8°C 86% 2.0 mph E3.2 kmh E 1.6 mph2.6 kmh 29.87 in1011.5 mb - 0.00 in0.0 mm 0.00 in0.0 mm
05:42 AM 57.6°F14.2°C 53.8°F12.1°C 87% 2.7 mph E4.3 kmh E 2.0 mph3.2 kmh 29.87 in1011.5 mb - 0.00 in0.0 mm 0.00 in0.0 mm
05:37 AM 58.1°F14.5°C 54.9°F12.7°C 89% 0.9 mph E1.4 kmh E 2.0 mph3.2 kmh 29.87 in1011.5 mb - 0.00 in0.0 mm 0.00 in0.0 mm
05:32 AM 58.1°F14.5°C 54.9°F12.7°C 89% 0.9 mph NE1.4 kmh NE 0.9 mph1.4 kmh 29.87 in1011.5 mb - 0.00 in0.0 mm 0.00 in0.0 mm
05:27 AM 58.1°F14.5°C 54.9°F12.7°C 89% 1.3 mph 2.1 kmh -- 29.87 in1011.5 mb - 0.00 in0.0 mm 0.00 in0.0 mm
05:22 AM 57.9°F14.4°C 54.7°F12.6°C 89% 1.3 mph NNE2.1 kmh NNE 2.5 mph4.0 kmh 29.87 in1011.5 mb - 0.00 in0.0 mm 0.00 in0.0 mm
05:17 AM 58.1°F14.5°C 55.2°F12.9°C 90% Calm Calm 0.9 mph1.4 kmh 29.87 in1011.5 mb - 0.00 in0.0 mm 0.00 in0.0 mm
05:12 AM 58.1°F14.5°C 55.2°F12.9°C 90% Calm Calm -- 29.87 in1011.5 mb - 0.00 in0.0 mm 0.00 in0.0 mm
05:07 AM 57.9°F14.4°C 55.0°F12.8°C 90% 1.6 mph NW2.6 kmh NW 2.0 mph3.2 kmh 29.87 in1011.5 mb - 0.00 in0.0 mm 0.00 in0.0 mm
05:02 AM 57.9°F14.4°C 54.7°F12.6°C 89% 2.0 mph 3.2 kmh 2.2 mph3.5 kmh 29.87 in1011.5 mb - 0.00 in0.0 mm 0.00 in0.0 mm
04:57 AM 57.9°F14.4°C 54.7°F12.6°C 89% 3.1 mph NW5.0 kmh NW 3.6 mph5.8 kmh 29.87 in1011.5 mb - 0.00 in0.0 mm 0.00 in0.0 mm
04:52 AM 58.1°F14.5°C 54.5°F12.5°C 88% 3.4 mph 5.5 kmh 2.9 mph4.7 kmh 29.87 in1011.5 mb - 0.00 in0.0 mm 0.00 in0.0 mm
04:47 AM 58.5°F14.7°C 54.9°F12.7°C 88% 3.4 mph NW5.5 kmh NW 3.8 mph6.1 kmh 29.87 in1011.5 mb - 0.00 in0.0 mm 0.00 in0.0 mm
04:42 AM 58.8°F14.9°C 55.2°F12.9°C 88% 2.5 mph NW4.0 kmh NW 2.9 mph4.7 kmh 29.87 in1011.5 mb - 0.00 in0.0 mm 0.00 in0.0 mm
04:37 AM 58.6°F14.8°C 54.9°F12.7°C 87% 1.6 mph W2.6 kmh W 2.5 mph4.0 kmh 29.87 in1011.5 mb - 0.00 in0.0 mm 0.00 in0.0 mm
04:32 AM 58.6°F14.8°C 54.9°F12.7°C 87% 2.2 mph NW3.5 kmh NW 2.5 mph4.0 kmh 29.87 in1011.5 mb - 0.00 in0.0 mm 0.00 in0.0 mm
04:27 AM 58.8°F14.9°C 55.0°F12.8°C 87% 2.0 mph 3.2 kmh 2.0 mph3.2 kmh 29.87 in1011.5 mb - 0.00 in0.0 mm 0.00 in0.0 mm
04:22 AM 58.8°F14.9°C 55.2°F12.9°C 88% 2.5 mph 4.0 kmh 2.2 mph3.5 kmh 29.87 in1011.5 mb - 0.00 in0.0 mm 0.00 in0.0 mm
04:17 AM 58.8°F14.9°C 55.2°F12.9°C 88% 0.9 mph 1.4 kmh 2.5 mph4.0 kmh 29.87 in1011.5 mb - 0.00 in0.0 mm 0.00 in0.0 mm
04:12 AM 58.8°F14.9°C 55.2°F12.9°C 88% Calm Calm -- 29.90 in1012.5 mb - 0.00 in0.0 mm 0.00 in0.0 mm
04:07 AM 58.6°F14.8°C 54.9°F12.7°C 87% 0.9 mph NE1.4 kmh NE -- 29.90 in1012.5 mb - 0.00 in0.0 mm 0.00 in0.0 mm
04:02 AM 58.6°F14.8°C 54.5°F12.5°C 86% Calm Calm -- 29.90 in1012.5 mb - 0.00 in0.0 mm 0.00 in0.0 mm
03:57 AM 58.6°F14.8°C 54.5°F12.5°C 86% 1.1 mph 1.8 kmh 1.1 mph1.8 kmh 29.90 in1012.5 mb - 0.00 in0.0 mm 0.00 in0.0 mm
03:52 AM 58.6°F14.8°C 54.5°F12.5°C 86% Calm Calm 1.1 mph1.8 kmh 29.90 in1012.5 mb - 0.00 in0.0 mm 0.00 in0.0 mm
03:22 AM 58.8°F14.9°C 54.0°F12.2°C 84% Calm Calm 1.3 mph2.1 kmh 29.90 in1012.5 mb - 0.00 in0.0 mm 0.00 in0.0 mm
03:17 AM 59.0°F15.0°C 54.1°F12.3°C 84% Calm Calm -- 29.90 in1012.5 mb - 0.00 in0.0 mm 0.00 in0.0 mm
03:12 AM 59.0°F15.0°C 54.1°F12.3°C 84% Calm Calm -- 29.90 in1012.5 mb - 0.00 in0.0 mm 0.00 in0.0 mm
03:07 AM 59.2°F15.1°C 54.3°F12.4°C 84% Calm Calm -- 29.90 in1012.5 mb - 0.00 in0.0 mm 0.00 in0.0 mm
03:02 AM 59.2°F15.1°C 55.0°F12.8°C 86% Calm Calm -- 29.90 in1012.5 mb - 0.00 in0.0 mm 0.00 in0.0 mm
02:57 AM 59.2°F15.1°C 54.7°F12.6°C 85% 3.1 mph NW5.0 kmh NW 2.0 mph3.2 kmh 29.90 in1012.5 mb - 0.00 in0.0 mm 0.00 in0.0 mm
02:52 AM 59.0°F15.0°C 53.8°F12.1°C 83% Calm Calm -- 29.90 in1012.5 mb - 0.00 in0.0 mm 0.00 in0.0 mm
02:47 AM 59.0°F15.0°C 53.6°F12.0°C 82% Calm Calm -- 29.90 in1012.5 mb - 0.00 in0.0 mm 0.00 in0.0 mm
02:42 AM 59.2°F15.1°C 54.0°F12.2°C 83% Calm Calm -- 29.90 in1012.5 mb - 0.00 in0.0 mm 0.00 in0.0 mm
02:37 AM 59.4°F15.2°C 54.1°F12.3°C 83% Calm Calm -- 29.90 in1012.5 mb - 0.00 in0.0 mm 0.00 in0.0 mm
02:32 AM 59.2°F15.1°C 53.4°F11.9°C 81% Calm Calm -- 29.90 in1012.5 mb - 0.00 in0.0 mm 0.00 in0.0 mm
02:27 AM 59.5°F15.3°C 54.0°F12.2°C 82% 2.0 mph E3.2 kmh E 1.6 mph2.6 kmh 29.90 in1012.5 mb - 0.00 in0.0 mm 0.00 in0.0 mm
02:22 AM 59.7°F15.4°C 54.1°F12.3°C 82% Calm Calm 0.9 mph1.4 kmh 29.90 in1012.5 mb - 0.00 in0.0 mm 0.00 in0.0 mm
02:17 AM 59.5°F15.3°C 53.8°F12.1°C 81% 1.6 mph E2.6 kmh E 1.1 mph1.8 kmh 29.90 in1012.5 mb - 0.00 in0.0 mm 0.00 in0.0 mm
02:12 AM 60.1°F15.6°C 54.9°F12.7°C 83% 3.6 mph SE5.8 kmh SE 4.5 mph7.2 kmh 29.90 in1012.5 mb - 0.00 in0.0 mm 0.00 in0.0 mm
02:07 AM 60.3°F15.7°C 55.4°F13.0°C 84% 2.9 mph 4.7 kmh 2.5 mph4.0 kmh 29.90 in1012.5 mb - 0.00 in0.0 mm 0.00 in0.0 mm
02:02 AM 60.6°F15.9°C 55.4°F13.0°C 83% 3.8 mph NW6.1 kmh NW 2.9 mph4.7 kmh 29.90 in1012.5 mb - 0.00 in0.0 mm 0.00 in0.0 mm
01:57 AM 60.6°F15.9°C 55.4°F13.0°C 83% 1.1 mph 1.8 kmh 2.0 mph3.2 kmh 29.90 in1012.5 mb - 0.00 in0.0 mm 0.00 in0.0 mm
01:52 AM 60.8°F16.0°C 55.2°F12.9°C 82% 2.5 mph NW4.0 kmh NW 2.9 mph4.7 kmh 29.90 in1012.5 mb - 0.00 in0.0 mm 0.00 in0.0 mm
01:47 AM 60.8°F16.0°C 55.2°F12.9°C 82% 1.3 mph NW2.1 kmh NW 0.9 mph1.4 kmh 29.90 in1012.5 mb - 0.00 in0.0 mm 0.00 in0.0 mm
01:42 AM 61.0°F16.1°C 55.4°F13.0°C 82% Calm Calm 1.3 mph2.1 kmh 29.90 in1012.5 mb - 0.00 in0.0 mm 0.00 in0.0 mm
01:37 AM 61.2°F16.2°C 55.9°F13.3°C 83% Calm Calm -- 29.90 in1012.5 mb - 0.00 in0.0 mm 0.00 in0.0 mm
01:32 AM 61.0°F16.1°C 55.8°F13.2°C 83% 1.6 mph 2.6 kmh 1.3 mph2.1 kmh 29.90 in1012.5 mb - 0.00 in0.0 mm 0.00 in0.0 mm
01:27 AM 61.0°F16.1°C 55.8°F13.2°C 83% 0.9 mph NE1.4 kmh NE -- 29.90 in1012.5 mb - 0.00 in0.0 mm 0.00 in0.0 mm
01:22 AM 61.0°F16.1°C 56.1°F13.4°C 84% 1.1 mph 1.8 kmh 0.9 mph1.4 kmh 29.90 in1012.5 mb - 0.00 in0.0 mm 0.00 in0.0 mm
01:17 AM 61.0°F16.1°C 56.1°F13.4°C 84% 1.1 mph W1.8 kmh W -- 29.90 in1012.5 mb - 0.00 in0.0 mm 0.00 in0.0 mm
01:12 AM 61.0°F16.1°C 56.1°F13.4°C 84% 3.6 mph NW5.8 kmh NW 2.7 mph4.3 kmh 29.93 in1013.5 mb - 0.00 in0.0 mm 0.00 in0.0 mm
01:07 AM 61.0°F16.1°C 55.8°F13.2°C 83% 2.2 mph NW3.5 kmh NW 2.7 mph4.3 kmh 29.93 in1013.5 mb - 0.00 in0.0 mm 0.00 in0.0 mm
01:02 AM 61.2°F16.2°C 55.9°F13.3°C 83% 2.5 mph NW4.0 kmh NW 3.6 mph5.8 kmh 29.93 in1013.5 mb - 0.00 in0.0 mm 0.00 in0.0 mm
12:57 AM 61.3°F16.3°C 56.1°F13.4°C 83% Calm Calm -- 29.93 in1013.5 mb - 0.00 in0.0 mm 0.00 in0.0 mm
12:52 AM 61.3°F16.3°C 56.1°F13.4°C 83% 1.3 mph NW2.1 kmh NW 1.6 mph2.6 kmh 29.93 in1013.5 mb - 0.00 in0.0 mm 0.00 in0.0 mm
12:47 AM 61.3°F16.3°C 55.4°F13.0°C 81% Calm Calm -- 29.93 in1013.5 mb - 0.00 in0.0 mm 0.00 in0.0 mm
12:42 AM 61.2°F16.2°C 54.3°F12.4°C 78% Calm Calm -- 29.93 in1013.5 mb - 0.00 in0.0 mm 0.00 in0.0 mm
12:37 AM 61.3°F16.3°C 54.5°F12.5°C 78% 1.6 mph E2.6 kmh E 2.0 mph3.2 kmh 29.93 in1013.5 mb - 0.00 in0.0 mm 0.00 in0.0 mm
12:32 AM 61.3°F16.3°C 53.8°F12.1°C 76% 1.3 mph E2.1 kmh E -- 29.93 in1013.5 mb - 0.00 in0.0 mm 0.00 in0.0 mm
12:27 AM 61.7°F16.5°C 54.5°F12.5°C 77% 2.5 mph E4.0 kmh E 2.7 mph4.3 kmh 29.93 in1013.5 mb - 0.00 in0.0 mm 0.00 in0.0 mm
12:22 AM 62.2°F16.8°C 54.1°F12.3°C 75% 1.3 mph E2.1 kmh E 1.6 mph2.6 kmh 29.93 in1013.5 mb - 0.00 in0.0 mm 0.00 in0.0 mm
12:17 AM 62.6°F17.0°C 54.5°F12.5°C 75% 1.1 mph ESE1.8 kmh ESE 0.9 mph1.4 kmh 29.93 in1013.5 mb - 0.00 in0.0 mm 0.00 in0.0 mm
12:12 AM 62.6°F17.0°C 54.5°F12.5°C 75% 0.9 mph E1.4 kmh E 1.3 mph2.1 kmh 29.93 in1013.5 mb - 0.00 in0.0 mm 0.00 in0.0 mm
12:07 AM 62.8°F17.1°C 55.0°F12.8°C 76% Calm Calm -- 29.93 in1013.5 mb - 0.00 in0.0 mm 0.00 in0.0 mm
12:02 AM 62.8°F17.1°C 55.4°F13.0°C 77% Calm Calm -- 29.93 in1013.5 mb - 0.00 in0.0 mm 0.00 in0.0 mm